Time;durP1;ratioP1;P1;durP2;ratioP2;P2;SDS_P1;SDS_P2;PMS_P1;PMS_P2;Temp;Humidity;BMP_temperature;BMP_pressure;BME280_temperature;BME280_humidity;BME280_pressure;Samples;Min_cycle;Max_cycle;Signal;HPM_P1;HPM_P2
2021/06/13 00:01:30;;;;;;;;;;;;;;;;;;4947862;28;19930;-88
2021/06/13 00:04:00;;;;;;;;;;;;;;;;;;4947981;29;19933;-87
2021/06/13 00:06:28;;;;;;;;;;;;;;;;;;4958267;28;19929;-86
2021/06/13 00:08:56;;;;;;;;;;;;;;;;;;4958395;28;19922;-89
2021/06/13 00:11:24;;;;;;;;;;;;;;;;;;4946175;28;19922;-87
2021/06/13 00:13:52;;;;;;;;;;;;;;;;;;4957170;28;19922;-86
2021/06/13 00:16:20;;;;;;;;;;;;;;;;;;4949671;28;19929;-87
2021/06/13 00:18:48;;;;;;;;;;;;;;;;;;4952373;28;19926;-85
2021/06/13 00:21:18;;;;;;;;;;;;;;;;;;4950815;28;19921;-85
2021/06/13 00:23:46;;;;;;;;;;;;;;;;;;4946104;29;19922;-85
2021/06/13 00:26:19;;;;;;;;;;;;;;;;;;4959726;28;19931;-87
2021/06/13 00:28:47;;;;;;;;;;;;;;;;;;4951100;29;19923;-89
2021/06/13 00:31:15;;;;;;;;;;;;;;;;;;4959890;28;19929;-87
2021/06/13 00:33:43;;;;;;;;;;;;;;;;;;4952642;28;19937;-86
2021/06/13 00:36:10;;;;;;;;;;;;;;;;;;4961312;28;20396;-87
2021/06/13 00:38:40;;;;;;;;;;;;;;;;;;4947583;28;19929;-87
2021/06/13 00:41:08;;;;;;;;;;;;;;;;;;4953521;29;19926;-87
2021/06/13 00:43:36;;;;;;;;;;;;;;;;;;4956243;28;19930;-89
2021/06/13 00:46:04;;;;;;;;;;;;;;;;;;4948477;28;19937;-88
2021/06/13 00:48:32;;;;;;;;;;;;;;;;;;4945042;28;19922;-89
2021/06/13 00:51:00;;;;;;;;;;;;;;;;;;4957252;28;19922;-88
2021/06/13 00:53:29;;;;;;;;;;;;;;;;;;4945152;28;19922;-89
2021/06/13 00:56:02;;;;;;;;;;;;;;;;;;4943201;28;19922;-86
2021/06/13 00:58:32;;;;;;;;;;;;;;;;;;4950108;28;19922;-86
2021/06/13 01:01:01;;;;;;;;;;;;;;;;;;4962595;28;19930;-86
2021/06/13 01:03:34;;;;;;;;;;;;;;;;;;4943665;28;19926;-86
2021/06/13 01:06:02;;;;;;;;;;;;;;;;;;4943821;28;20421;-88
2021/06/13 01:08:33;;;;;;;;;;;;;;;;;;4952325;28;19929;-87
2021/06/13 01:11:05;;;;;;;;;;;;;;;;;;4956712;28;19926;-88
2021/06/13 01:13:36;;;;;;;;;;;;;;;;;;4959483;28;20475;-87
2021/06/13 01:16:05;;;;;;;;;;;;;;;;;;4957096;28;19922;-85
2021/06/13 01:18:36;;;;;;;;;;;;;;;;;;4952680;28;19929;-86
2021/06/13 01:21:05;;;;;;;;;;;;;;;;;;4941853;28;19921;-86
2021/06/13 01:23:59;;;;;;;;;;;;;;;;;;4947768;29;20301;-87
2021/06/13 01:26:51;;;;;;;;;;;;;;;;;;4960511;28;19922;-86
2021/06/13 01:29:21;;;;;;;;;;;;;;;;;;4934164;28;19952;-89
2021/06/13 01:31:52;;;;;;;;;;;;;;;;;;4962595;28;19930;-88
2021/06/13 01:34:22;;;;;;;;;;;;;;;;;;4957511;28;20381;-88
2021/06/13 01:36:52;;;;;;;;;;;;;;;;;;4960879;28;20086;-87
2021/06/13 01:39:25;;;;;;;;;;;;;;;;;;4950117;28;20219;-85
2021/06/13 01:41:58;;;;;;;;;;;;;;;;;;4972060;28;19921;-86
2021/06/13 01:44:31;;;;;;;;;;;;;;;;;;4968393;28;19929;-87
2021/06/13 01:47:00;;;;;;;;;;;;;;;;;;4966831;28;19922;-88
2021/06/13 01:49:28;;;;;;;;;;;;;;;;;;4949899;28;20372;-87
2021/06/13 01:51:58;;;;;;;;;;;;;;;;;;4967915;28;20308;-86
2021/06/13 01:54:26;;;;;;;;;;;;;;;;;;4984486;28;19930;-88
2021/06/13 01:56:55;;;;;;;;;;;;;;;;;;4927771;29;19938;-88
2021/06/13 01:59:34;;;;;;;;;;;;;;;;;;4945794;28;19922;-85
2021/06/13 02:02:05;;;;;;;;;;;;;;;;;;4963181;28;19933;-88
2021/06/13 02:04:38;;;;;;;;;;;;;;;;;;4946138;28;19922;-88
2021/06/13 02:07:12;;;;;;;;;;;;;;;;;;4946726;28;19929;-88
2021/06/13 02:09:41;;;;;;;;;;;;;;;;;;4972726;28;19922;-86
2021/06/13 02:12:10;;;;;;;;;;;;;;;;;;4945439;28;20894;-87
2021/06/13 02:14:51;;;;;;;;;;;;;;;;;;4948483;28;19922;-85
2021/06/13 02:17:30;;;;;;;;;;;;;;;;;;4972176;28;19922;-86
2021/06/13 02:20:02;;;;;;;;;;;;;;;;;;4942442;28;19934;-86
2021/06/13 02:22:33;;;;;;;;;;;;;;;;;;4944719;28;19921;-87
2021/06/13 02:25:02;;;;;;;;;;;;;;;;;;4948678;28;19929;-86
2021/06/13 02:27:33;;;;;;;;;;;;;;;;;;4950509;28;20740;-87
2021/06/13 02:30:05;;;;;;;;;;;;;;;;;;4949247;28;19930;-86
2021/06/13 02:32:34;;;;;;;;;;;;;;;;;;4944899;29;19922;-87
2021/06/13 02:35:03;;;;;;;;;;;;;;;;;;4962962;28;19926;-87
2021/06/13 02:37:38;;;;;;;;;;;;;;;;;;4943121;28;20299;-87
2021/06/13 02:40:09;;;;;;;;;;;;;;;;;;4947330;28;19922;-88
2021/06/13 02:42:37;;;;;;;;;;;;;;;;;;4938267;29;19922;-86
2021/06/13 02:45:10;;;;;;;;;;;;;;;;;;4948840;28;20399;-87
2021/06/13 02:47:40;;;;;;;;;;;;;;;;;;4945584;28;19926;-88
2021/06/13 02:50:09;;;;;;;;;;;;;;;;;;4951219;28;20368;-87
2021/06/13 02:52:40;;;;;;;;;;;;;;;;;;4940396;28;20155;-88
2021/06/13 02:55:10;;;;;;;;;;;;;;;;;;4951112;28;19929;-86
2021/06/13 02:57:39;;;;;;;;;;;;;;;;;;4957776;28;19922;-88
2021/06/13 03:00:09;;;;;;;;;;;;;;;;;;4964878;28;19922;-88
2021/06/13 03:02:44;;;;;;;;;;;;;;;;;;4938885;29;19922;-88
2021/06/13 03:05:13;;;;;;;;;;;;;;;;;;4956823;28;19922;-86
2021/06/13 03:07:42;;;;;;;;;;;;;;;;;;4948770;28;19929;-90
2021/06/13 03:10:11;;;;;;;;;;;;;;;;;;4945723;28;19922;-87
2021/06/13 03:12:39;;;;;;;;;;;;;;;;;;4937282;28;19946;-86
2021/06/13 03:15:10;;;;;;;;;;;;;;;;;;4966417;28;19922;-86
2021/06/13 03:17:40;;;;;;;;;;;;;;;;;;4959964;28;19922;-88
2021/06/13 03:20:09;;;;;;;;;;;;;;;;;;4943242;28;19922;-87
2021/06/13 03:22:37;;;;;;;;;;;;;;;;;;4937236;28;19929;-87
2021/06/13 03:25:06;;;;;;;;;;;;;;;;;;4948800;28;19930;-88
2021/06/13 03:27:36;;;;;;;;;;;;;;;;;;4944632;28;19925;-88
2021/06/13 03:30:08;;;;;;;;;;;;;;;;;;4944620;28;19929;-87
2021/06/13 03:32:42;;;;;;;;;;;;;;;;;;4967841;28;20391;-88
2021/06/13 03:35:13;;;;;;;;;;;;;;;;;;4952234;28;19929;-89
2021/06/13 03:37:42;;;;;;;;;;;;;;;;;;4946541;28;19922;-86
2021/06/13 03:40:14;;;;;;;;;;;;;;;;;;4950406;28;19922;-88
2021/06/13 03:42:42;;;;;;;;;;;;;;;;;;4946550;28;19922;-85
2021/06/13 03:45:12;;;;;;;;;;;;;;;;;;4968238;28;19926;-86
2021/06/13 03:47:40;;;;;;;;;;;;;;;;;;4950557;28;19922;-88
2021/06/13 03:50:11;;;;;;;;;;;;;;;;;;4964085;28;19937;-87
2021/06/13 03:52:40;;;;;;;;;;;;;;;;;;4948389;28;19922;-87
2021/06/13 03:55:10;;;;;;;;;;;;;;;;;;4948453;28;19922;-86
2021/06/13 03:57:39;;;;;;;;;;;;;;;;;;4945825;29;19933;-87
2021/06/13 04:00:08;;;;;;;;;;;;;;;;;;4984111;28;19911;-89
2021/06/13 04:02:41;;;;;;;;;;;;;;;;;;4983098;28;19926;-89
2021/06/13 04:05:11;;;;;;;;;;;;;;;;;;4964662;28;19918;-89
2021/06/13 04:07:40;;;;;;;;;;;;;;;;;;4968067;28;19969;-89
2021/06/13 04:10:09;;;;;;;;;;;;;;;;;;4957960;28;19934;-88
2021/06/13 04:12:37;;;;;;;;;;;;;;;;;;4944654;29;19934;-87
2021/06/13 04:15:07;;;;;;;;;;;;;;;;;;4947815;28;19922;-87
2021/06/13 04:17:35;;;;;;;;;;;;;;;;;;4948033;28;19937;-88
2021/06/13 04:20:04;;;;;;;;;;;;;;;;;;4942281;29;20091;-87
2021/06/13 04:22:34;;;;;;;;;;;;;;;;;;4960178;28;19922;-88
2021/06/13 04:25:03;;;;;;;;;;;;;;;;;;4946049;29;19922;-88
2021/06/13 04:27:31;;;;;;;;;;;;;;;;;;4948309;28;19930;-87
2021/06/13 04:30:01;;;;;;;;;;;;;;;;;;4938429;28;20383;-88
2021/06/13 04:32:29;;;;;;;;;;;;;;;;;;4964533;28;19918;-88
2021/06/13 04:34:58;;;;;;;;;;;;;;;;;;4969665;28;19920;-90
2021/06/13 04:37:26;;;;;;;;;;;;;;;;;;4998304;28;19917;-89
2021/06/13 04:39:56;;;;;;;;;;;;;;;;;;4979004;28;19910;-89
2021/06/13 04:42:24;;;;;;;;;;;;;;;;;;4969798;28;19922;-88
2021/06/13 04:44:52;;;;;;;;;;;;;;;;;;4944996;29;19932;-87
2021/06/13 04:47:21;;;;;;;;;;;;;;;;;;4954280;28;19922;-89
2021/06/13 04:49:51;;;;;;;;;;;;;;;;;;4952773;28;19937;-88
2021/06/13 04:52:21;;;;;;;;;;;;;;;;;;4959354;28;19932;-89
2021/06/13 04:54:58;;;;;;;;;;;;;;;;;;4937879;28;20381;-88
2021/06/13 04:57:39;;;;;;;;;;;;;;;;;;4935337;28;19922;-88
2021/06/13 05:00:08;;;;;;;;;;;;;;;;;;4955450;28;19925;-88
2021/06/13 05:02:39;;;;;;;;;;;;;;;;;;4970700;28;19922;-88
2021/06/13 05:05:07;;;;;;;;;;;;;;;;;;4952043;28;19926;-88
2021/06/13 05:07:36;;;;;;;;;;;;;;;;;;4963449;28;19941;-88
2021/06/13 05:10:06;;;;;;;;;;;;;;;;;;4955186;28;20279;-88
2021/06/13 05:12:44;;;;;;;;;;;;;;;;;;4940305;28;19929;-87
2021/06/13 05:15:13;;;;;;;;;;;;;;;;;;4956572;28;19929;-87
2021/06/13 05:17:42;;;;;;;;;;;;;;;;;;4953473;28;19933;-88
2021/06/13 05:20:11;;;;;;;;;;;;;;;;;;4941091;28;19921;-87
2021/06/13 05:22:56;;;;;;;;;;;;;;;;;;4945877;28;19922;-88
2021/06/13 05:25:27;;;;;;;;;;;;;;;;;;4965474;28;19937;-87
2021/06/13 05:27:55;;;;;;;;;;;;;;;;;;4954132;28;19922;-87
2021/06/13 05:30:24;;;;;;;;;;;;;;;;;;4942731;28;19933;-87
2021/06/13 05:32:53;;;;;;;;;;;;;;;;;;4930675;28;19922;-89
2021/06/13 05:35:21;;;;;;;;;;;;;;;;;;4954466;28;19922;-87
2021/06/13 05:37:50;;;;;;;;;;;;;;;;;;4948401;28;19926;-89
2021/06/13 05:40:19;;;;;;;;;;;;;;;;;;4940272;28;19933;-88
2021/06/13 05:42:49;;;;;;;;;;;;;;;;;;4942728;28;19922;-87
2021/06/13 05:45:18;;;;;;;;;;;;;;;;;;4948038;28;19929;-88
2021/06/13 05:47:46;;;;;;;;;;;;;;;;;;4965427;28;19922;-87
2021/06/13 05:50:14;;;;;;;;;;;;;;;;;;4939831;28;19926;-87
2021/06/13 05:52:43;;;;;;;;;;;;;;;;;;4957192;28;19929;-87
2021/06/13 05:55:11;;;;;;;;;;;;;;;;;;4953620;28;19922;-88
2021/06/13 05:57:40;;;;;;;;;;;;;;;;;;4968029;28;19922;-86
2021/06/13 06:00:11;;;;;;;;;;;;;;;;;;4953561;28;20210;-86
2021/06/13 06:02:40;;;;;;;;;;;;;;;;;;4957812;28;19933;-87
2021/06/13 06:05:09;;;;;;;;;;;;;;;;;;4959696;28;20385;-87
2021/06/13 06:07:37;;;;;;;;;;;;;;;;;;4934204;28;19921;-88
2021/06/13 06:10:07;;;;;;;;;;;;;;;;;;4941630;28;20297;-87
2021/06/13 06:12:36;;;;;;;;;;;;;;;;;;4949857;28;19930;-87
2021/06/13 06:15:05;;;;;;;;;;;;;;;;;;4947030;28;19933;-86
2021/06/13 06:17:37;;;;;;;;;;;;;;;;;;4949801;28;19930;-86
2021/06/13 06:20:06;;;;;;;;;;;;;;;;;;4953483;28;19929;-86
2021/06/13 06:22:35;;;;;;;;;;;;;;;;;;4938790;28;19921;-86
2021/06/13 06:25:04;;;;;;;;;;;;;;;;;;4948296;28;19922;-85
2021/06/13 06:27:32;;;;;;;;;;;;;;;;;;4951424;28;19937;-87
2021/06/13 06:30:00;;;;;;;;;;;;;;;;;;4944472;28;19930;-85
2021/06/13 06:32:29;;;;;;;;;;;;;;;;;;4944078;28;20394;-86
2021/06/13 06:34:59;;;;;;;;;;;;;;;;;;4949112;28;19930;-86
2021/06/13 06:37:29;;;;;;;;;;;;;;;;;;4933917;28;19922;-87
2021/06/13 06:39:57;;;;;;;;;;;;;;;;;;4955293;28;19929;-86
2021/06/13 06:42:26;;;;;;;;;;;;;;;;;;4950053;28;19926;-86
2021/06/13 06:44:55;;;;;;;;;;;;;;;;;;4940460;28;19929;-87
2021/06/13 06:47:23;;;;;;;;;;;;;;;;;;4960551;28;19929;-87
2021/06/13 06:49:52;;;;;;;;;;;;;;;;;;4936745;28;20333;-86
2021/06/13 06:52:21;;;;;;;;;;;;;;;;;;4940642;28;20377;-87
2021/06/13 06:54:50;;;;;;;;;;;;;;;;;;4951030;28;20399;-87
2021/06/13 06:57:18;;;;;;;;;;;;;;;;;;4958358;28;19933;-87
2021/06/13 06:59:47;;;;;;;;;;;;;;;;;;4938781;28;20297;-87
2021/06/13 07:02:15;;;;;;;;;;;;;;;;;;4952263;28;19922;-86
2021/06/13 07:04:43;;;;;;;;;;;;;;;;;;4960935;28;19937;-87
2021/06/13 07:07:12;;;;;;;;;;;;;;;;;;4942250;28;19951;-87
2021/06/13 07:09:42;;;;;;;;;;;;;;;;;;4943520;28;19937;-87
2021/06/13 07:12:10;;;;;;;;;;;;;;;;;;4954316;28;19922;-87
2021/06/13 07:14:39;;;;;;;;;;;;;;;;;;4957811;28;19922;-87
2021/06/13 07:17:07;;;;;;;;;;;;;;;;;;4940629;28;19921;-86
2021/06/13 07:19:36;;;;;;;;;;;;;;;;;;4937193;28;19933;-86
2021/06/13 07:22:04;;;;;;;;;;;;;;;;;;4943479;28;19929;-86
2021/06/13 07:24:33;;;;;;;;;;;;;;;;;;4947747;28;19937;-87
2021/06/13 07:27:03;;;;;;;;;;;;;;;;;;4949655;28;20296;-85
2021/06/13 07:29:32;;;;;;;;;;;;;;;;;;4981929;28;19922;-86
2021/06/13 07:32:00;;;;;;;;;;;;;;;;;;4945710;28;19921;-86
2021/06/13 07:34:29;;;;;;;;;;;;;;;;;;4980842;28;19926;-86
2021/06/13 07:36:57;;;;;;;;;;;;;;;;;;4948987;28;19930;-86
2021/06/13 07:39:49;;;;;;;;;;;;;;;;;;4961847;28;19929;-86
2021/06/13 07:42:45;;;;;;;;;;;;;;;;;;4948133;28;19922;-85
2021/06/13 07:45:14;;;;;;;;;;;;;;;;;;4947354;28;20029;-84
2021/06/13 07:47:43;;;;;;;;;;;;;;;;;;4951774;28;19926;-85
2021/06/13 07:50:13;;;;;;;;;;;;;;;;;;4952041;28;19926;-86
2021/06/13 07:52:43;;;;;;;;;;;;;;;;;;4968155;28;19930;-85
2021/06/13 07:55:47;;;;;;;;;;;;;;;;;;4955273;28;19937;-86
2021/06/13 07:58:43;;;;;;;;;;;;;;;;;;4934300;28;19926;-85
2021/06/13 08:01:20;;;;;;;;;;;;;;;;;;4970512;28;19925;-86
2021/06/13 08:03:50;;;;;;;;;;;;;;;;;;4951413;28;19926;-84
2021/06/13 08:06:18;;;;;;;;;;;;;;;;;;4952726;28;19945;-85
2021/06/13 08:08:47;;;;;;;;;;;;;;;;;;4937384;28;19922;-85
2021/06/13 08:11:15;;;;;;;;;;;;;;;;;;4964906;28;20414;-86
2021/06/13 08:13:45;;;;;;;;;;;;;;;;;;4937154;28;19929;-83
2021/06/13 08:16:13;;;;;;;;;;;;;;;;;;4955120;28;19922;-84
2021/06/13 08:18:42;;;;;;;;;;;;;;;;;;4943838;28;19926;-84
2021/06/13 08:21:10;;;;;;;;;;;;;;;;;;4940433;28;20277;-83
2021/06/13 08:23:38;;;;;;;;;;;;;;;;;;4948954;28;19922;-83
2021/06/13 08:26:07;;;;;;;;;;;;;;;;;;4938263;28;20554;-83
2021/06/13 08:28:35;;;;;;;;;;;;;;;;;;4953865;28;19926;-83
2021/06/13 08:31:05;;;;;;;;;;;;;;;;;;4955350;28;19929;-84
2021/06/13 08:33:33;;;;;;;;;;;;;;;;;;4939423;28;19927;-83
2021/06/13 08:36:02;;;;;;;;;;;;;;;;;;4938543;28;19933;-83
2021/06/13 08:38:31;;;;;;;;;;;;;;;;;;4952898;28;19922;-84
2021/06/13 08:40:59;;;;;;;;;;;;;;;;;;4970505;28;19933;-83
2021/06/13 08:43:28;;;;;;;;;;;;;;;;;;4942933;28;20435;-84
2021/06/13 08:45:58;;;;;;;;;;;;;;;;;;4961573;28;19933;-83
2021/06/13 08:48:28;;;;;;;;;;;;;;;;;;4944253;28;20311;-83
2021/06/13 08:50:57;;;;;;;;;;;;;;;;;;4944157;28;19922;-84
2021/06/13 08:53:26;;;;;;;;;;;;;;;;;;4956397;28;20355;-83
2021/06/13 08:55:54;;;;;;;;;;;;;;;;;;4940060;28;19922;-84
2021/06/13 08:58:23;;;;;;;;;;;;;;;;;;4943297;28;19925;-84
2021/06/13 09:00:52;;;;;;;;;;;;;;;;;;4945273;28;19925;-85
2021/06/13 09:03:21;;;;;;;;;;;;;;;;;;4956730;28;19929;-84
2021/06/13 09:05:51;;;;;;;;;;;;;;;;;;4946688;28;19922;-84
2021/06/13 09:08:19;;;;;;;;;;;;;;;;;;4959465;28;19952;-84
2021/06/13 09:10:48;;;;;;;;;;;;;;;;;;4961243;28;19926;-86
2021/06/13 09:13:17;;;;;;;;;;;;;;;;;;4949323;28;20287;-85
2021/06/13 09:15:47;;;;;;;;;;;;;;;;;;4958317;28;20388;-85
2021/06/13 09:18:35;;;;;;;;;;;;;;;;;;4963537;28;19932;-86
2021/06/13 09:21:07;;;;;;;;;;;;;;;;;;4945732;28;19933;-86
2021/06/13 09:23:38;;;;;;;;;;;;;;;;;;4963728;28;19925;-86
2021/06/13 09:26:07;;;;;;;;;;;;;;;;;;4971271;28;20292;-86
2021/06/13 09:28:37;;;;;;;;;;;;;;;;;;4963672;28;19925;-85
2021/06/13 09:31:05;;;;;;;;;;;;;;;;;;4962811;28;20384;-86
2021/06/13 09:33:34;;;;;;;;;;;;;;;;;;4944952;28;20389;-85
2021/06/13 09:36:04;;;;;;;;;;;;;;;;;;4962179;28;19926;-84
2021/06/13 09:38:36;;;;;;;;;;;;;;;;;;4977480;28;19926;-85
2021/06/13 09:41:07;;;;;;;;;;;;;;;;;;4947298;28;19922;-85
2021/06/13 09:43:37;;;;;;;;;;;;;;;;;;4959968;28;19926;-85
2021/06/13 09:46:07;;;;;;;;;;;;;;;;;;4947627;28;19933;-85
2021/06/13 09:48:37;;;;;;;;;;;;;;;;;;4983544;28;19937;-84
2021/06/13 09:51:09;;;;;;;;;;;;;;;;;;4962720;28;19922;-84
2021/06/13 09:53:45;;;;;;;;;;;;;;;;;;4945167;28;19933;-84
2021/06/13 09:56:18;;;;;;;;;;;;;;;;;;4944192;28;19922;-85
2021/06/13 09:58:47;;;;;;;;;;;;;;;;;;4961078;28;19922;-84
2021/06/13 10:01:16;;;;;;;;;;;;;;;;;;4942567;28;19929;-85
2021/06/13 10:03:47;;;;;;;;;;;;;;;;;;4943759;28;20003;-85
2021/06/13 10:06:17;;;;;;;;;;;;;;;;;;4946159;28;19941;-86
2021/06/13 10:08:48;;;;;;;;;;;;;;;;;;4946061;28;20331;-86
2021/06/13 10:11:18;;;;;;;;;;;;;;;;;;4963879;28;19922;-85
2021/06/13 10:13:51;;;;;;;;;;;;;;;;;;4943984;29;19929;-85
2021/06/13 10:16:27;;;;;;;;;;;;;;;;;;4977648;28;19922;-84
2021/06/13 10:18:56;;;;;;;;;;;;;;;;;;4979610;28;19933;-85
2021/06/13 10:21:26;;;;;;;;;;;;;;;;;;4975038;28;19929;-84
2021/06/13 10:23:56;;;;;;;;;;;;;;;;;;4975638;28;19929;-84
2021/06/13 10:26:25;;;;;;;;;;;;;;;;;;4959394;28;19922;-85
2021/06/13 10:28:54;;;;;;;;;;;;;;;;;;4947292;28;19929;-86
2021/06/13 10:31:23;;;;;;;;;;;;;;;;;;4977934;28;19926;-85
2021/06/13 10:33:52;;;;;;;;;;;;;;;;;;4945027;28;19922;-85
2021/06/13 10:36:21;;;;;;;;;;;;;;;;;;4941122;28;19938;-84
2021/06/13 10:38:49;;;;;;;;;;;;;;;;;;4941986;28;19933;-85
2021/06/13 10:41:19;;;;;;;;;;;;;;;;;;4953082;28;19922;-85
2021/06/13 10:43:47;;;;;;;;;;;;;;;;;;4957161;28;19926;-84
2021/06/13 10:46:17;;;;;;;;;;;;;;;;;;4943290;28;19933;-84
2021/06/13 10:48:49;;;;;;;;;;;;;;;;;;4955029;28;19922;-84
2021/06/13 10:51:31;;;;;;;;;;;;;;;;;;4942019;28;19922;-85
2021/06/13 10:54:18;;;;;;;;;;;;;;;;;;4956189;28;20399;-85
2021/06/13 10:56:49;;;;;;;;;;;;;;;;;;4954787;28;20360;-85
2021/06/13 10:59:20;;;;;;;;;;;;;;;;;;4944772;28;19926;-85
2021/06/13 11:01:57;;;;;;;;;;;;;;;;;;4959041;28;19926;-85
2021/06/13 11:04:41;;;;;;;;;;;;;;;;;;4955056;28;20380;-85
2021/06/13 11:07:11;;;;;;;;;;;;;;;;;;4940609;28;19922;-85
2021/06/13 11:09:58;;;;;;;;;;;;;;;;;;4954933;28;19922;-84
2021/06/13 11:12:45;;;;;;;;;;;;;;;;;;4958313;28;20300;-87
2021/06/13 11:15:19;;;;;;;;;;;;;;;;;;4940013;28;20440;-85
2021/06/13 11:17:54;;;;;;;;;;;;;;;;;;4937629;28;19922;-85
2021/06/13 11:20:34;;;;;;;;;;;;;;;;;;4947471;28;19946;-85
2021/06/13 11:23:03;;;;;;;;;;;;;;;;;;4957501;28;19922;-85
2021/06/13 11:25:32;;;;;;;;;;;;;;;;;;4963401;28;19929;-85
2021/06/13 11:28:09;;;;;;;;;;;;;;;;;;4948585;28;20491;-85
2021/06/13 11:30:42;;;;;;;;;;;;;;;;;;4956909;28;19922;-85
2021/06/13 11:33:11;;;;;;;;;;;;;;;;;;4953678;28;19929;-85
2021/06/13 11:35:44;;;;;;;;;;;;;;;;;;4941043;28;19929;-85
2021/06/13 11:38:29;;;;;;;;;;;;;;;;;;4951530;28;19933;-85
2021/06/13 11:40:59;;;;;;;;;;;;;;;;;;4950566;28;20400;-85
2021/06/13 11:43:30;;;;;;;;;;;;;;;;;;4942673;28;19922;-84
2021/06/13 11:46:01;;;;;;;;;;;;;;;;;;4942281;28;19945;-84
2021/06/13 11:48:30;;;;;;;;;;;;;;;;;;4955909;28;19921;-85
2021/06/13 11:51:16;;;;;;;;;;;;;;;;;;4938807;28;20296;-85
2021/06/13 11:53:52;;;;;;;;;;;;;;;;;;4953395;28;19938;-85
2021/06/13 11:56:40;;;;;;;;;;;;;;;;;;4937577;28;20399;-85
2021/06/13 11:59:10;;;;;;;;;;;;;;;;;;4953355;28;19922;-84
2021/06/13 12:01:40;;;;;;;;;;;;;;;;;;4956480;28;19929;-85
2021/06/13 12:04:14;;;;;;;;;;;;;;;;;;4971299;28;19926;-85
2021/06/13 12:06:42;;;;;;;;;;;;;;;;;;4970252;28;19933;-85
2021/06/13 12:09:12;;;;;;;;;;;;;;;;;;4942318;28;19922;-85
2021/06/13 12:11:41;;;;;;;;;;;;;;;;;;4946930;28;20375;-85
2021/06/13 12:14:20;;;;;;;;;;;;;;;;;;4943764;28;19929;-85
2021/06/13 12:16:51;;;;;;;;;;;;;;;;;;4944399;28;19929;-85
2021/06/13 12:19:26;;;;;;;;;;;;;;;;;;4962823;28;19926;-85
2021/06/13 12:21:55;;;;;;;;;;;;;;;;;;4945352;28;19933;-85
2021/06/13 12:24:39;;;;;;;;;;;;;;;;;;4960769;28;19930;-85
2021/06/13 12:27:23;;;;;;;;;;;;;;;;;;4958441;28;19929;-85
2021/06/13 12:29:51;;;;;;;;;;;;;;;;;;4955810;28;19929;-85
2021/06/13 12:32:21;;;;;;;;;;;;;;;;;;4962402;28;20369;-85
2021/06/13 12:34:53;;;;;;;;;;;;;;;;;;4962239;28;19929;-85
2021/06/13 12:37:23;;;;;;;;;;;;;;;;;;4946817;28;20452;-85
2021/06/13 12:39:56;;;;;;;;;;;;;;;;;;4945621;28;19922;-85
2021/06/13 12:42:25;;;;;;;;;;;;;;;;;;4943636;28;20132;-86
2021/06/13 12:45:00;;;;;;;;;;;;;;;;;;4960821;28;19933;-86
2021/06/13 12:47:31;;;;;;;;;;;;;;;;;;4971257;28;20414;-86
2021/06/13 12:50:00;;;;;;;;;;;;;;;;;;4942374;28;19922;-86
2021/06/13 12:52:28;;;;;;;;;;;;;;;;;;4946270;28;19922;-86
2021/06/13 12:54:58;;;;;;;;;;;;;;;;;;4961293;28;19922;-86
2021/06/13 12:57:27;;;;;;;;;;;;;;;;;;4946531;28;19929;-85
2021/06/13 13:00:21;;;;;;;;;;;;;;;;;;4941714;28;20265;-86
2021/06/13 13:03:05;;;;;;;;;;;;;;;;;;4971597;28;19929;-86
2021/06/13 13:05:38;;;;;;;;;;;;;;;;;;4955971;28;19929;-86
2021/06/13 13:12:32;;;;;;;;;;;;;;;;;;4977511;28;19933;-86
2021/06/13 13:19:19;;;;;;;;;;;;;;;;;;4973470;28;19929;-85
2021/06/13 13:21:48;;;;;;;;;;;;;;;;;;4945705;28;19937;-85
2021/06/13 13:24:38;;;;;;;;;;;;;;;;;;4944763;28;19929;-85
2021/06/13 13:27:45;;;;;;;;;;;;;;;;;;4947276;28;19937;-85
2021/06/13 13:30:58;;;;;;;;;;;;;;;;;;4974019;28;19933;-85
2021/06/13 13:33:30;;;;;;;;;;;;;;;;;;4942177;28;20442;-84
2021/06/13 13:36:29;;;;;;;;;;;;;;;;;;4968849;28;19922;-85
2021/06/13 13:42:20;;;;;;;;;;;;;;;;;;4969939;28;19929;-84
2021/06/13 13:44:49;;;;;;;;;;;;;;;;;;4936611;28;19934;-84
2021/06/13 13:47:17;;;;;;;;;;;;;;;;;;4957990;28;19926;-84
2021/06/13 13:49:46;;;;;;;;;;;;;;;;;;4957909;28;19922;-84
2021/06/13 13:52:19;;;;;;;;;;;;;;;;;;4961002;28;19922;-85
2021/06/13 13:54:48;;;;;;;;;;;;;;;;;;4957840;28;20107;-84
2021/06/13 13:57:16;;;;;;;;;;;;;;;;;;4970797;28;19922;-84
2021/06/13 13:59:46;;;;;;;;;;;;;;;;;;4955531;28;20533;-84
2021/06/13 14:02:16;;;;;;;;;;;;;;;;;;4946643;28;19933;-85
2021/06/13 14:04:44;;;;;;;;;;;;;;;;;;4968460;28;19944;-84
2021/06/13 14:07:13;;;;;;;;;;;;;;;;;;4946637;28;19933;-84
2021/06/13 14:09:48;;;;;;;;;;;;;;;;;;4979068;28;19922;-84
2021/06/13 14:12:17;;;;;;;;;;;;;;;;;;4964692;28;19937;-84
2021/06/13 14:14:45;;;;;;;;;;;;;;;;;;4970269;28;19929;-84
2021/06/13 14:17:14;;;;;;;;;;;;;;;;;;4960331;28;19929;-84
2021/06/13 14:19:42;;;;;;;;;;;;;;;;;;4942592;28;19922;-84
2021/06/13 14:22:11;;;;;;;;;;;;;;;;;;4952489;28;19906;-85
2021/06/13 14:24:39;;;;;;;;;;;;;;;;;;4962361;28;19922;-84
2021/06/13 14:27:09;;;;;;;;;;;;;;;;;;4958191;28;20021;-84
2021/06/13 14:29:37;;;;;;;;;;;;;;;;;;4940709;28;19922;-84
2021/06/13 14:32:06;;;;;;;;;;;;;;;;;;4941264;28;19933;-84
2021/06/13 14:34:35;;;;;;;;;;;;;;;;;;4941325;28;19937;-84
2021/06/13 14:37:04;;;;;;;;;;;;;;;;;;4954929;28;19926;-84
2021/06/13 14:39:32;;;;;;;;;;;;;;;;;;4947837;28;19929;-84
2021/06/13 14:42:01;;;;;;;;;;;;;;;;;;4942585;28;19922;-84
2021/06/13 14:44:31;;;;;;;;;;;;;;;;;;4941292;28;19926;-84
2021/06/13 14:46:59;;;;;;;;;;;;;;;;;;4956865;28;19950;-84
2021/06/13 14:49:28;;;;;;;;;;;;;;;;;;4942690;28;19926;-84
2021/06/13 14:51:56;;;;;;;;;;;;;;;;;;4964782;28;20376;-84
2021/06/13 14:54:27;;;;;;;;;;;;;;;;;;4935111;28;19926;-84
2021/06/13 14:56:55;;;;;;;;;;;;;;;;;;4936071;28;19937;-84
2021/06/13 14:59:24;;;;;;;;;;;;;;;;;;4936097;28;19930;-83
2021/06/13 15:01:53;;;;;;;;;;;;;;;;;;4970787;28;19929;-83
2021/06/13 15:04:22;;;;;;;;;;;;;;;;;;4952727;28;19922;-83
2021/06/13 15:06:50;;;;;;;;;;;;;;;;;;4936254;28;20361;-83
2021/06/13 15:09:19;;;;;;;;;;;;;;;;;;4968786;28;19930;-83
2021/06/13 15:11:47;;;;;;;;;;;;;;;;;;4939987;28;19926;-84
2021/06/13 15:14:16;;;;;;;;;;;;;;;;;;4956158;28;19933;-83
2021/06/13 15:16:44;;;;;;;;;;;;;;;;;;4939431;28;19945;-83
2021/06/13 15:19:14;;;;;;;;;;;;;;;;;;4954063;28;19922;-85
2021/06/13 15:21:42;;;;;;;;;;;;;;;;;;4937641;28;19929;-85
2021/06/13 15:24:10;;;;;;;;;;;;;;;;;;4938763;28;20403;-83
2021/06/13 15:26:39;;;;;;;;;;;;;;;;;;4932504;29;19926;-82
2021/06/13 15:29:09;;;;;;;;;;;;;;;;;;4956623;28;19929;-83
2021/06/13 15:31:38;;;;;;;;;;;;;;;;;;4936969;28;19923;-82
2021/06/13 15:34:06;;;;;;;;;;;;;;;;;;4969668;28;19929;-83
2021/06/13 15:36:35;;;;;;;;;;;;;;;;;;4937859;28;19922;-85
2021/06/13 15:39:05;;;;;;;;;;;;;;;;;;4968513;28;19937;-82
2021/06/13 15:41:33;;;;;;;;;;;;;;;;;;4971518;28;20390;-83
2021/06/13 15:44:01;;;;;;;;;;;;;;;;;;4956697;28;19922;-83
2021/06/13 15:46:35;;;;;;;;;;;;;;;;;;4954326;28;20343;-83
2021/06/13 15:49:04;;;;;;;;;;;;;;;;;;4942307;28;20234;-83
2021/06/13 15:51:33;;;;;;;;;;;;;;;;;;4943845;28;19929;-83
2021/06/13 15:54:04;;;;;;;;;;;;;;;;;;4957193;28;20507;-83
2021/06/13 15:56:33;;;;;;;;;;;;;;;;;;4944041;28;20372;-83
2021/06/13 15:59:02;;;;;;;;;;;;;;;;;;4945205;28;19922;-83
2021/06/13 16:01:31;;;;;;;;;;;;;;;;;;4956177;28;19926;-83
2021/06/13 16:03:59;;;;;;;;;;;;;;;;;;4944688;28;20325;-84
2021/06/13 16:06:28;;;;;;;;;;;;;;;;;;4940990;28;19926;-84
2021/06/13 16:08:56;;;;;;;;;;;;;;;;;;4943226;28;19933;-84
2021/06/13 16:11:27;;;;;;;;;;;;;;;;;;4943858;28;19922;-84
2021/06/13 16:13:55;;;;;;;;;;;;;;;;;;4948107;28;20296;-84
2021/06/13 16:16:24;;;;;;;;;;;;;;;;;;4948857;28;19938;-84
2021/06/13 16:18:53;;;;;;;;;;;;;;;;;;4947521;28;19926;-86
2021/06/13 16:21:21;;;;;;;;;;;;;;;;;;4967386;28;19929;-84
2021/06/13 16:23:50;;;;;;;;;;;;;;;;;;4970702;28;20315;-84
2021/06/13 16:26:18;;;;;;;;;;;;;;;;;;4975150;28;19922;-85
2021/06/13 16:28:48;;;;;;;;;;;;;;;;;;4944879;28;19929;-83
2021/06/13 16:31:16;;;;;;;;;;;;;;;;;;4945230;28;20242;-84
2021/06/13 16:33:45;;;;;;;;;;;;;;;;;;4958867;28;19922;-84
2021/06/13 16:36:13;;;;;;;;;;;;;;;;;;4956647;28;19921;-84
2021/06/13 16:38:41;;;;;;;;;;;;;;;;;;4950753;28;19926;-85
2021/06/13 16:41:10;;;;;;;;;;;;;;;;;;4941773;28;19922;-85
2021/06/13 16:43:38;;;;;;;;;;;;;;;;;;4946263;28;19922;-84
2021/06/13 16:46:08;;;;;;;;;;;;;;;;;;4959116;28;20490;-85
2021/06/13 16:48:36;;;;;;;;;;;;;;;;;;4942164;28;19930;-85
2021/06/13 16:51:05;;;;;;;;;;;;;;;;;;4959617;28;20289;-85
2021/06/13 16:53:34;;;;;;;;;;;;;;;;;;4938253;28;19930;-86
2021/06/13 16:56:02;;;;;;;;;;;;;;;;;;4942418;28;19933;-86
2021/06/13 16:58:32;;;;;;;;;;;;;;;;;;4940934;28;20284;-87
2021/06/13 17:01:00;;;;;;;;;;;;;;;;;;4942584;28;19953;-85
2021/06/13 17:03:30;;;;;;;;;;;;;;;;;;4942225;28;19949;-86
2021/06/13 17:05:59;;;;;;;;;;;;;;;;;;4957769;28;19922;-85
2021/06/13 17:08:28;;;;;;;;;;;;;;;;;;4936682;29;19944;-85
2021/06/13 17:10:56;;;;;;;;;;;;;;;;;;4935028;28;19930;-86
2021/06/13 17:13:25;;;;;;;;;;;;;;;;;;4955535;28;20399;-85
2021/06/13 17:15:54;;;;;;;;;;;;;;;;;;4935209;28;19930;-85
2021/06/13 17:18:23;;;;;;;;;;;;;;;;;;4940882;28;19930;-85
2021/06/13 17:20:53;;;;;;;;;;;;;;;;;;4951605;28;20404;-85
2021/06/13 17:23:23;;;;;;;;;;;;;;;;;;4960573;28;20288;-85